createdAt,value
2018-06-08T00:00:24.433Z,19.00
2018-06-08T00:02:52.926Z,19.00
2018-06-08T00:05:21.448Z,19.00
2018-06-08T00:07:49.914Z,19.00
2018-06-08T00:10:18.398Z,19.00
2018-06-08T00:12:46.847Z,19.10
2018-06-08T00:15:15.349Z,19.00
2018-06-08T00:17:43.842Z,19.10
2018-06-08T00:20:12.298Z,19.10
2018-06-08T00:22:40.790Z,19.10
2018-06-08T00:25:09.328Z,19.00
2018-06-08T00:27:37.777Z,19.00
2018-06-08T00:30:06.378Z,19.00
2018-06-08T00:32:34.850Z,19.00
2018-06-08T00:35:03.408Z,19.00
2018-06-08T00:37:31.939Z,19.00
2018-06-08T00:40:00.514Z,19.00
2018-06-08T00:42:29.021Z,19.10
2018-06-08T00:44:59.726Z,19.10
2018-06-08T00:47:28.218Z,19.10
2018-06-08T00:49:56.735Z,19.00
2018-06-08T00:52:25.257Z,19.00
2018-06-08T00:54:53.729Z,19.00
2018-06-08T00:57:22.202Z,19.00
2018-06-08T00:59:50.719Z,19.00
2018-06-08T01:02:19.191Z,19.00
2018-06-08T01:04:47.642Z,19.00
2018-06-08T01:07:16.147Z,18.90
2018-06-08T01:09:44.634Z,18.90
2018-06-08T01:12:13.131Z,18.90
2018-06-08T01:14:41.630Z,19.00
2018-06-08T01:17:10.114Z,18.90
2018-06-08T01:19:38.682Z,18.90
2018-06-08T01:22:07.182Z,18.90
2018-06-08T01:24:35.688Z,19.00
2018-06-08T01:27:04.243Z,18.90
2018-06-08T01:29:32.733Z,19.00
2018-06-08T01:32:01.200Z,18.90
2018-06-08T01:34:29.619Z,18.90
2018-06-08T01:36:58.122Z,19.00
2018-06-08T01:39:26.578Z,18.90
2018-06-08T01:41:55.166Z,18.80
2018-06-08T01:44:23.649Z,18.80
2018-06-08T01:46:52.205Z,18.80
2018-06-08T01:49:20.682Z,18.70
2018-06-08T01:51:49.184Z,18.70
2018-06-08T01:54:17.619Z,18.70
2018-06-08T01:56:46.581Z,18.70
2018-06-08T01:59:15.076Z,18.70
2018-06-08T02:01:43.562Z,18.70
2018-06-08T02:04:12.050Z,18.60
2018-06-08T02:06:40.513Z,18.60
2018-06-08T02:09:08.974Z,18.60
2018-06-08T02:11:37.422Z,18.60
2018-06-08T02:14:05.887Z,18.70
2018-06-08T02:16:34.318Z,18.70
2018-06-08T02:19:02.843Z,18.70
2018-06-08T02:21:31.719Z,18.70
2018-06-08T02:24:00.196Z,18.70
2018-06-08T02:26:28.732Z,18.70
2018-06-08T02:28:57.217Z,18.70
2018-06-08T02:31:25.707Z,18.70
2018-06-08T02:33:54.194Z,18.60
2018-06-08T02:36:22.735Z,18.60
2018-06-08T02:38:51.351Z,18.60
2018-06-08T02:41:20.035Z,18.60
2018-06-08T02:43:48.506Z,18.60
2018-06-08T02:46:18.023Z,18.60
2018-06-08T02:48:46.490Z,18.60
2018-06-08T02:51:14.985Z,18.60
2018-06-08T02:53:44.183Z,18.60
2018-06-08T02:56:12.665Z,18.60
2018-06-08T02:58:41.114Z,18.60
2018-06-08T03:01:09.619Z,18.60
2018-06-08T03:03:38.115Z,18.60
2018-06-08T03:06:06.836Z,18.60
2018-06-08T03:08:35.314Z,18.60
2018-06-08T03:11:03.793Z,18.60
2018-06-08T03:13:32.238Z,18.60
2018-06-08T03:16:00.756Z,18.60
2018-06-08T03:18:29.233Z,18.60
2018-06-08T03:20:57.686Z,18.50
2018-06-08T03:23:26.184Z,18.50
2018-06-08T03:25:54.623Z,18.50
2018-06-08T03:28:23.078Z,18.50
2018-06-08T03:33:19.620Z,18.50
2018-06-08T03:35:48.123Z,18.60
2018-06-08T03:38:16.538Z,18.60
2018-06-08T03:40:45.306Z,18.50
2018-06-08T03:43:13.782Z,18.50
2018-06-08T03:48:10.406Z,18.50
2018-06-08T03:50:38.860Z,18.50
2018-06-08T03:53:07.365Z,18.50
2018-06-08T03:55:35.855Z,18.50
2018-06-08T03:58:04.318Z,18.50
2018-06-08T04:00:32.791Z,18.60
2018-06-08T04:03:01.278Z,18.60
2018-06-08T04:05:29.734Z,18.70
2018-06-08T04:07:58.315Z,18.70
2018-06-08T04:10:26.786Z,18.80
2018-06-08T04:12:55.273Z,18.80
2018-06-08T04:15:23.795Z,18.90
2018-06-08T04:17:52.274Z,19.00
2018-06-08T04:20:20.763Z,19.00
2018-06-08T04:22:49.282Z,19.10
2018-06-08T04:25:17.818Z,19.10
2018-06-08T04:27:46.266Z,19.20
2018-06-08T04:30:14.709Z,19.20
2018-06-08T04:32:43.199Z,19.20
2018-06-08T04:35:11.634Z,19.30
2018-06-08T04:37:40.066Z,19.30
2018-06-08T04:40:08.642Z,19.30
2018-06-08T04:42:37.146Z,19.30
2018-06-08T04:45:05.632Z,19.20
2018-06-08T04:47:34.139Z,19.20
2018-06-08T04:50:03.258Z,19.30
2018-06-08T04:52:31.778Z,19.20
2018-06-08T04:55:00.305Z,19.20
2018-06-08T04:57:28.791Z,19.20
2018-06-08T04:59:57.251Z,19.30
2018-06-08T05:02:25.745Z,19.40
2018-06-08T05:04:54.222Z,19.40
2018-06-08T05:07:22.929Z,19.50
2018-06-08T05:09:51.512Z,19.60
2018-06-08T05:12:19.980Z,19.60
2018-06-08T05:14:48.889Z,19.70
2018-06-08T05:17:17.384Z,19.80
2018-06-08T05:19:45.882Z,19.90
2018-06-08T05:22:14.379Z,19.90
2018-06-08T05:24:43.298Z,20.00
2018-06-08T05:27:11.860Z,20.10
2018-06-08T05:29:41.868Z,20.20
2018-06-08T05:32:10.684Z,20.30
2018-06-08T05:34:39.223Z,20.50
2018-06-08T05:37:07.728Z,20.50
2018-06-08T05:39:36.198Z,20.60
2018-06-08T05:42:04.721Z,20.70
2018-06-08T05:44:33.546Z,20.70
2018-06-08T05:47:02.514Z,20.80
2018-06-08T05:49:31.072Z,20.90
2018-06-08T05:51:59.552Z,20.80
2018-06-08T05:54:28.032Z,20.90
2018-06-08T05:56:56.494Z,20.90
2018-06-08T05:59:24.988Z,20.90
2018-06-08T06:01:53.557Z,20.90
2018-06-08T06:04:22.079Z,20.90
2018-06-08T06:06:50.540Z,20.90
2018-06-08T06:09:19.027Z,20.90
2018-06-08T06:11:47.647Z,20.90
2018-06-08T06:14:16.131Z,21.00
2018-06-08T06:16:44.642Z,20.90
2018-06-08T06:19:13.146Z,21.00
2018-06-08T06:21:41.674Z,21.10
2018-06-08T06:24:10.814Z,21.10
2018-06-08T06:26:39.310Z,21.10
2018-06-08T06:29:07.808Z,21.10
2018-06-08T06:31:36.606Z,21.20
2018-06-08T06:34:05.112Z,21.30
2018-06-08T06:36:33.574Z,21.30
2018-06-08T06:39:02.112Z,21.40
2018-06-08T06:41:30.591Z,21.60
2018-06-08T06:43:59.121Z,21.70
2018-06-08T06:46:27.573Z,21.70
2018-06-08T06:48:56.069Z,21.60
2018-06-08T06:51:24.594Z,21.50
2018-06-08T06:53:53.117Z,21.40
2018-06-08T06:56:21.623Z,21.50
2018-06-08T06:59:06.833Z,21.60
2018-06-08T07:01:35.398Z,21.70
2018-06-08T07:04:03.965Z,21.60
2018-06-08T07:06:32.542Z,21.70
2018-06-08T07:09:01.035Z,21.70
2018-06-08T07:11:29.535Z,21.70
2018-06-08T07:13:58.059Z,21.70
2018-06-08T07:16:26.875Z,21.80
2018-06-08T07:18:55.358Z,21.80
2018-06-08T07:21:23.887Z,21.70
2018-06-08T07:23:52.361Z,21.70
2018-06-08T07:28:49.066Z,21.80
2018-06-08T07:31:17.574Z,21.70
2018-06-08T07:33:46.074Z,21.70
2018-06-08T07:36:14.548Z,21.70
2018-06-08T07:38:43.094Z,21.60
2018-06-08T07:41:11.608Z,21.50
2018-06-08T07:43:40.114Z,21.40
2018-06-08T07:46:08.670Z,21.40
2018-06-08T07:48:37.456Z,21.50
2018-06-08T07:51:06.163Z,21.50
2018-06-08T07:53:34.674Z,21.50
2018-06-08T07:56:03.191Z,21.60
2018-06-08T07:58:31.661Z,21.50
2018-06-08T08:03:28.349Z,21.40
2018-06-08T08:05:56.830Z,21.30
2018-06-08T08:08:25.269Z,21.20
2018-06-08T08:10:53.832Z,21.30
2018-06-08T08:13:22.331Z,21.40
2018-06-08T08:15:50.814Z,21.40
2018-06-08T08:18:19.282Z,21.30
2018-06-08T08:20:47.770Z,21.20
2018-06-08T08:23:16.546Z,21.20
2018-06-08T08:25:45.012Z,21.20
2018-06-08T08:28:13.527Z,21.10
2018-06-08T08:30:41.991Z,21.00
2018-06-08T08:33:10.486Z,21.00
2018-06-08T08:35:39.007Z,21.00
2018-06-08T08:38:07.479Z,21.00
2018-06-08T08:40:36.011Z,21.00
2018-06-08T08:43:04.499Z,21.10
2018-06-08T08:45:32.964Z,21.10
2018-06-08T08:48:01.427Z,21.10
2018-06-08T08:50:29.922Z,21.10
2018-06-08T08:52:58.397Z,20.90
2018-06-08T08:55:26.862Z,20.80
2018-06-08T08:57:55.351Z,20.70
2018-06-08T09:00:23.819Z,20.60
2018-06-08T09:02:52.302Z,20.50
2018-06-08T09:05:20.837Z,20.30
2018-06-08T09:07:49.883Z,20.20
2018-06-08T09:10:18.363Z,20.20
2018-06-08T09:12:46.900Z,20.20
2018-06-08T09:15:15.375Z,20.00
2018-06-08T09:17:44.086Z,20.00
2018-06-08T09:20:12.637Z,20.10
2018-06-08T09:22:41.178Z,20.00
2018-06-08T09:25:09.640Z,20.10
2018-06-08T09:27:38.490Z,20.10
2018-06-08T09:30:07.439Z,20.10
2018-06-08T09:32:36.045Z,20.00
2018-06-08T09:35:04.610Z,20.00
2018-06-08T09:37:33.173Z,20.00
2018-06-08T09:40:01.764Z,20.00
2018-06-08T09:42:30.206Z,20.00
2018-06-08T09:44:58.735Z,20.00
2018-06-08T09:47:27.222Z,20.00
2018-06-08T09:49:56.031Z,20.00
2018-06-08T09:52:24.545Z,20.00
2018-06-08T09:54:53.048Z,20.00
2018-06-08T09:57:21.958Z,19.80
2018-06-08T09:59:50.442Z,19.70
2018-06-08T10:02:19.285Z,19.70
2018-06-08T10:04:47.742Z,19.70
2018-06-08T10:07:16.229Z,19.60
2018-06-08T10:09:44.727Z,19.60
2018-06-08T10:12:13.204Z,19.70
2018-06-08T10:14:41.706Z,19.70
2018-06-08T10:17:10.230Z,19.80
2018-06-08T10:19:39.080Z,19.90
2018-06-08T10:22:07.595Z,19.90
2018-06-08T10:24:36.114Z,20.10
2018-06-08T10:29:32.788Z,20.50
2018-06-08T10:32:01.702Z,20.90
2018-06-08T10:34:30.190Z,21.20
2018-06-08T10:36:58.726Z,21.40
2018-06-08T10:39:27.390Z,21.70
2018-06-08T10:41:55.906Z,21.90
2018-06-08T10:44:24.864Z,22.10
2018-06-08T10:46:53.374Z,21.90
2018-06-08T10:49:21.870Z,22.00
2018-06-08T10:51:50.354Z,21.80
2018-06-08T10:54:18.848Z,21.70
2018-06-08T10:56:47.299Z,21.70
2018-06-08T10:59:15.779Z,21.70
2018-06-08T11:01:44.638Z,22.00
2018-06-08T11:04:13.440Z,22.00
2018-06-08T11:06:41.901Z,22.10
2018-06-08T11:09:10.398Z,22.20
2018-06-08T11:11:38.839Z,22.50
2018-06-08T11:14:07.307Z,22.60
2018-06-08T11:16:35.766Z,22.50
2018-06-08T11:19:04.262Z,22.50
2018-06-08T11:21:32.762Z,22.40
2018-06-08T11:24:01.227Z,22.40
2018-06-08T11:26:29.722Z,22.50
2018-06-08T11:28:58.186Z,22.50
2018-06-08T11:31:26.628Z,22.60
2018-06-08T11:33:55.095Z,22.60
2018-06-08T11:36:23.537Z,22.80
2018-06-08T11:38:52.014Z,22.80
2018-06-08T11:41:20.466Z,22.80
2018-06-08T11:43:49.039Z,22.60
2018-06-08T11:46:17.913Z,22.50
2018-06-08T11:48:46.362Z,22.50
2018-06-08T11:51:14.882Z,22.60
2018-06-08T11:53:43.373Z,22.60
2018-06-08T11:56:11.893Z,22.50
2018-06-08T11:58:40.367Z,22.50
2018-06-08T12:01:08.884Z,22.40
2018-06-08T12:03:37.353Z,22.40
2018-06-08T12:06:05.847Z,22.60
2018-06-08T12:08:34.345Z,22.60
2018-06-08T12:11:02.827Z,22.60
2018-06-08T12:13:31.309Z,22.60
2018-06-08T12:15:59.775Z,22.50
2018-06-08T12:18:28.281Z,22.50
2018-06-08T12:20:56.801Z,22.50
2018-06-08T12:23:25.331Z,22.40
2018-06-08T12:25:53.917Z,22.20
2018-06-08T12:28:22.444Z,22.30
2018-06-08T12:30:51.002Z,22.40
2018-06-08T12:33:19.502Z,22.40
2018-06-08T12:35:48.091Z,22.50
2018-06-08T12:38:16.635Z,22.60
2018-06-08T12:40:45.130Z,22.80
2018-06-08T12:43:13.646Z,22.90
2018-06-08T12:45:42.197Z,22.80
2018-06-08T12:48:10.688Z,22.70
2018-06-08T12:50:39.258Z,22.60
2018-06-08T12:53:07.777Z,22.50
2018-06-08T12:55:36.338Z,22.40
2018-06-08T12:58:04.868Z,22.30
2018-06-08T13:00:33.385Z,22.30
2018-06-08T13:03:01.879Z,22.30
2018-06-08T13:05:30.371Z,22.40
2018-06-08T13:07:58.905Z,22.40
2018-06-08T13:10:27.462Z,22.50
2018-06-08T13:12:56.043Z,22.40
2018-06-08T13:15:24.533Z,22.50
2018-06-08T13:17:53.426Z,22.60
2018-06-08T13:20:21.955Z,23.00
2018-06-08T13:22:50.495Z,23.40
2018-06-08T13:25:19.004Z,23.70
2018-06-08T13:27:47.535Z,23.70
2018-06-08T13:30:16.007Z,23.70
2018-06-08T13:32:44.818Z,23.80
2018-06-08T13:35:13.319Z,24.10
2018-06-08T13:37:41.803Z,24.10
2018-06-08T13:40:10.327Z,24.20
2018-06-08T13:42:38.893Z,24.00
2018-06-08T13:45:07.658Z,24.10
2018-06-08T13:50:04.461Z,24.00
2018-06-08T13:52:32.962Z,24.00
2018-06-08T13:55:01.486Z,23.90
2018-06-08T13:57:30.055Z,23.90
2018-06-08T13:59:58.828Z,23.90
2018-06-08T14:02:27.334Z,23.90
2018-06-08T14:04:56.343Z,24.00
2018-06-08T14:07:24.910Z,23.80
2018-06-08T14:09:53.444Z,24.00
2018-06-08T14:12:22.022Z,24.10
2018-06-08T14:14:50.602Z,24.10
2018-06-08T14:17:19.280Z,24.20
2018-06-08T14:19:47.827Z,24.20
2018-06-08T14:22:16.358Z,24.10
2018-06-08T14:24:45.302Z,24.10
2018-06-08T14:27:14.159Z,24.10
2018-06-08T14:29:42.829Z,24.30
2018-06-08T14:32:11.365Z,24.40
2018-06-08T14:34:39.850Z,24.50
2018-06-08T14:37:08.366Z,24.60
2018-06-08T14:39:36.874Z,24.50
2018-06-08T14:42:05.394Z,24.50
2018-06-08T14:44:34.027Z,24.70
2018-06-08T14:47:02.620Z,24.80
2018-06-08T14:49:31.074Z,24.90
2018-06-08T14:51:59.601Z,24.80
2018-06-08T14:54:28.157Z,24.80
2018-06-08T14:56:56.647Z,24.70
2018-06-08T14:59:25.124Z,24.70
2018-06-08T15:01:53.626Z,24.60
2018-06-08T15:04:22.107Z,24.40
2018-06-08T15:06:50.623Z,24.50
2018-06-08T15:09:19.094Z,24.60
2018-06-08T15:11:47.629Z,24.60
2018-06-08T15:14:16.110Z,24.40
2018-06-08T15:16:44.633Z,24.30
2018-06-08T15:19:13.174Z,24.20
2018-06-08T15:21:41.658Z,24.10
2018-06-08T15:24:10.202Z,24.00
2018-06-08T15:26:38.748Z,23.90
2018-06-08T15:29:07.239Z,23.80
2018-06-08T15:31:35.719Z,23.60
2018-06-08T15:34:04.273Z,23.50
2018-06-08T15:36:32.730Z,23.30
2018-06-08T15:39:01.260Z,23.20
2018-06-08T15:41:29.738Z,23.00
2018-06-08T15:43:58.263Z,23.00
2018-06-08T15:46:26.778Z,23.10
2018-06-08T15:48:55.339Z,23.10
2018-06-08T15:51:23.895Z,23.30
2018-06-08T15:53:52.387Z,23.20
2018-06-08T15:56:20.918Z,23.40
2018-06-08T15:58:49.382Z,23.40
2018-06-08T16:01:17.915Z,23.30
2018-06-08T16:03:46.394Z,23.30
2018-06-08T16:06:14.911Z,23.30
2018-06-08T16:08:43.414Z,23.30
2018-06-08T16:11:11.903Z,23.20
2018-06-08T16:13:40.406Z,23.10
2018-06-08T16:16:09.003Z,23.10
2018-06-08T16:18:37.524Z,23.10
2018-06-08T16:21:06.046Z,23.10
2018-06-08T16:23:34.603Z,23.00
2018-06-08T16:26:03.126Z,23.00
2018-06-08T16:28:31.705Z,23.00
2018-06-08T16:31:00.336Z,23.00
2018-06-08T16:33:28.872Z,23.10
2018-06-08T16:35:57.362Z,23.20
2018-06-08T16:38:25.828Z,23.30
2018-06-08T16:41:00.930Z,23.40
2018-06-08T16:43:29.406Z,23.30
2018-06-08T16:45:57.904Z,23.40
2018-06-08T16:48:26.427Z,23.30
2018-06-08T16:50:54.947Z,23.30
2018-06-08T16:53:23.459Z,23.40
2018-06-08T16:55:52.408Z,23.30
2018-06-08T16:58:21.568Z,23.30
2018-06-08T17:00:50.579Z,23.20
2018-06-08T17:03:19.494Z,23.20
2018-06-08T17:05:48.065Z,23.20
2018-06-08T17:08:16.843Z,23.20
2018-06-08T17:10:45.443Z,23.20
2018-06-08T17:13:13.968Z,23.20
2018-06-08T17:15:43.348Z,23.10
2018-06-08T17:18:11.919Z,23.00
2018-06-08T17:20:40.753Z,22.90
2018-06-08T17:23:12.270Z,22.90
2018-06-08T17:25:41.195Z,22.90
2018-06-08T17:28:10.487Z,23.00
2018-06-08T17:30:39.188Z,23.10
2018-06-08T17:33:07.897Z,23.10
2018-06-08T17:35:36.532Z,23.00
2018-06-08T17:38:05.201Z,22.90
2018-06-08T17:40:33.841Z,22.80
2018-06-08T17:43:02.452Z,22.70
2018-06-08T17:45:31.073Z,22.80
2018-06-08T17:50:27.900Z,22.80
2018-06-08T17:52:56.494Z,22.70
2018-06-08T17:55:25.065Z,22.70
2018-06-08T17:57:53.650Z,22.70
2018-06-08T18:00:22.304Z,22.70
2018-06-08T18:02:50.838Z,22.60
2018-06-08T18:05:19.475Z,22.60
2018-06-08T18:07:48.089Z,22.60
2018-06-08T18:10:16.782Z,22.50
2018-06-08T18:12:46.185Z,22.50
2018-06-08T18:15:14.807Z,22.50
2018-06-08T18:17:43.758Z,22.50
2018-06-08T18:20:12.348Z,22.50
2018-06-08T18:22:40.915Z,22.50
2018-06-08T18:25:09.631Z,22.60
2018-06-08T18:27:38.272Z,22.50
2018-06-08T18:30:06.927Z,22.50
2018-06-08T18:32:35.517Z,22.50
2018-06-08T18:35:04.139Z,22.50
2018-06-08T18:37:32.740Z,22.40
2018-06-08T18:40:01.395Z,22.30
2018-06-08T18:42:30.269Z,22.30
2018-06-08T18:44:58.939Z,22.20
2018-06-08T18:47:27.574Z,22.20
2018-06-08T18:49:56.085Z,22.20
2018-06-08T18:52:24.736Z,22.10
2018-06-08T18:54:53.300Z,22.00
2018-06-08T18:57:21.807Z,22.00
2018-06-08T18:59:50.424Z,22.00
2018-06-08T19:02:19.005Z,21.90
2018-06-08T19:04:47.577Z,21.90
2018-06-08T19:07:16.238Z,21.90
2018-06-08T19:09:44.826Z,21.90
2018-06-08T19:12:13.361Z,21.90
2018-06-08T19:14:41.984Z,21.90
2018-06-08T19:17:10.578Z,21.90
2018-06-08T19:19:39.157Z,21.90
2018-06-08T19:22:07.689Z,21.90
2018-06-08T19:24:36.365Z,21.90
2018-06-08T19:27:04.846Z,21.90
2018-06-08T19:29:33.376Z,21.90
2018-06-08T19:32:01.980Z,21.80
2018-06-08T19:34:30.515Z,21.80
2018-06-08T19:36:59.126Z,21.70
2018-06-08T19:39:27.737Z,21.80
2018-06-08T19:41:56.411Z,21.80
2018-06-08T19:44:25.053Z,21.80
2018-06-08T19:46:53.641Z,21.70
2018-06-08T19:49:22.220Z,21.70
2018-06-08T19:51:50.878Z,21.70
2018-06-08T19:54:19.396Z,21.60
2018-06-08T19:56:47.906Z,21.60
2018-06-08T19:59:16.426Z,21.40
2018-06-08T20:01:44.997Z,21.40
2018-06-08T20:04:13.529Z,21.40
2018-06-08T20:06:42.050Z,21.30
2018-06-08T20:09:10.640Z,21.30
2018-06-08T20:11:39.218Z,21.20
2018-06-08T20:14:07.774Z,21.30
2018-06-08T20:16:36.348Z,21.20
2018-06-08T20:19:04.941Z,21.10
2018-06-08T20:24:01.662Z,21.00
2018-06-08T20:26:30.321Z,21.10
2018-06-08T20:28:58.949Z,21.00
2018-06-08T20:31:27.549Z,21.00
2018-06-08T20:33:56.153Z,21.00
2018-06-08T20:36:24.759Z,21.00
2018-06-08T20:38:53.322Z,21.10
2018-06-08T20:41:21.920Z,21.10
2018-06-08T20:43:50.472Z,21.10
2018-06-08T20:46:19.109Z,21.20
2018-06-08T20:48:47.646Z,21.10
2018-06-08T20:51:16.620Z,21.20
2018-06-08T20:53:45.455Z,21.20
2018-06-08T20:56:14.077Z,21.20
2018-06-08T20:58:43.492Z,21.20
2018-06-08T21:01:12.068Z,21.10
2018-06-08T21:03:40.901Z,21.00
2018-06-08T21:06:09.528Z,21.00
2018-06-08T21:08:38.437Z,20.90
2018-06-08T21:11:06.950Z,20.90
2018-06-08T21:13:35.507Z,20.90
2018-06-08T21:16:04.038Z,20.90
2018-06-08T21:18:32.582Z,20.80
2018-06-08T21:21:01.151Z,20.70
2018-06-08T21:23:29.711Z,20.60
2018-06-08T21:25:58.309Z,20.60
2018-06-08T21:28:26.921Z,20.50
2018-06-08T21:30:55.502Z,20.50
2018-06-08T21:33:24.160Z,20.40
2018-06-08T21:35:52.949Z,20.40
2018-06-08T21:38:21.860Z,20.30
2018-06-08T21:40:50.402Z,20.30
2018-06-08T21:43:18.930Z,20.30
2018-06-08T21:45:47.471Z,20.30
2018-06-08T21:48:16.054Z,20.20
2018-06-08T21:50:44.582Z,20.20
2018-06-08T21:53:13.111Z,20.10
2018-06-08T21:55:41.946Z,20.10
2018-06-08T21:58:10.489Z,20.10
2018-06-08T22:00:39.105Z,20.10
2018-06-08T22:03:07.617Z,20.00
2018-06-08T22:05:37.008Z,20.00
2018-06-08T22:08:05.542Z,20.10
2018-06-08T22:10:34.110Z,20.10
2018-06-08T22:13:02.924Z,20.10
2018-06-08T22:15:31.522Z,20.20
2018-06-08T22:18:00.310Z,20.30
2018-06-08T22:20:28.879Z,20.30
2018-06-08T22:22:57.455Z,20.30
2018-06-08T22:25:25.984Z,20.30
2018-06-08T22:27:54.510Z,20.40
2018-06-08T22:30:23.310Z,20.40
2018-06-08T22:32:52.756Z,20.40
2018-06-08T22:35:21.269Z,20.40
2018-06-08T22:37:49.919Z,20.50
2018-06-08T22:40:18.410Z,20.40
2018-06-08T22:42:46.974Z,20.40
2018-06-08T22:45:16.578Z,20.40
2018-06-08T22:47:45.399Z,20.30
2018-06-08T22:50:13.920Z,20.40
2018-06-08T22:52:42.980Z,20.40
2018-06-08T22:55:11.538Z,20.40
2018-06-08T22:57:40.082Z,20.40
2018-06-08T23:00:08.726Z,20.40
2018-06-08T23:02:37.238Z,20.40
2018-06-08T23:05:06.106Z,20.40
2018-06-08T23:07:35.047Z,20.40
2018-06-08T23:10:03.715Z,20.50
2018-06-08T23:12:32.702Z,20.50
2018-06-08T23:15:01.885Z,20.50
2018-06-08T23:17:30.385Z,20.50
2018-06-08T23:19:59.367Z,20.50
2018-06-08T23:22:27.877Z,20.50
2018-06-08T23:24:56.349Z,20.50
2018-06-08T23:27:25.246Z,20.50
2018-06-08T23:29:54.081Z,20.50
2018-06-08T23:32:23.314Z,20.50
2018-06-08T23:34:51.841Z,20.50
2018-06-08T23:37:20.426Z,20.40
2018-06-08T23:39:49.018Z,20.40
2018-06-08T23:42:17.817Z,20.40
2018-06-08T23:44:46.325Z,20.50
2018-06-08T23:47:15.194Z,20.50
2018-06-08T23:49:43.702Z,20.40
2018-06-08T23:52:12.232Z,20.40
2018-06-08T23:54:40.737Z,20.30
2018-06-08T23:57:09.282Z,20.20
2018-06-08T23:59:37.782Z,20.20
